Main page
METAR-TAF:

METAR-TAF

Airports :

Chhatrapati Shivaji International Airport

Mumbai, India

latitude: 19-07N, longitude: 072-51E, elevation: 8 m

Current weather observation

The report was made 22 minutes ago, at 23:00 UTC
Wind 3 kt from the South/Southeast
Temperature 23°C
Humidity 78%
Pressure 1012 hPa
Visibility: 2200 m
haze

METAR: VABB 212300Z 16003KT 2200 HZ NSC 23/19 Q1012 NOSIG

Time: 04:52 (23:22 UTC)

Forecast

The report was made 3 hours and 22 minutes ago, at 20:00 UTC
Forecast valid from 21 at 21 UTC to 22 at 06 UTC
Wind kt from the North
Visibility: 2000 m
haze
Becoming
from 22 at 03 UTC to 22 at 05 UTC
Wind 5 kt from the East
Visibility: 2500 m
smoke

TAF: VABB 212000Z 2121/2206 00000KT 2000 HZ NSC BECMG 2203/2205 09005KT 2500 FU

Weather observations and forecasts of more than 4000 airports (METAR and TAF reports).

The available stations are represented by yellow and red dots on the map.

Hover mouse over dot to see the name of the station.

Then click to see weather observations and forecasts.

To change the map : click on the green buttons with a black cross to zoom in, on the green button with a dash to zoom out, or on the green arrows for adjacent maps.


METAR-TAF: